createdAt,value
2023-12-09T00:00:35.926Z,100541.75
2023-12-09T00:05:39.584Z,100536.78
2023-12-09T00:10:43.194Z,100533.25
2023-12-09T00:15:46.951Z,100533.50
2023-12-09T00:20:51.125Z,100536.78
2023-12-09T00:25:54.660Z,100536.22
2023-12-09T00:30:58.125Z,100526.63
2023-12-09T00:36:01.633Z,100541.09
2023-12-09T00:41:05.961Z,100542.03
2023-12-09T00:46:09.397Z,100538.66
2023-12-09T00:51:14.030Z,100539.66
2023-12-09T00:56:33.054Z,100544.63
2023-12-09T01:01:38.812Z,100542.84
2023-12-09T01:06:42.322Z,100548.75
2023-12-09T01:11:46.961Z,100547.16
2023-12-09T01:16:50.550Z,100549.66
2023-12-09T01:21:54.174Z,100544.44
2023-12-09T01:26:57.598Z,100533.25
2023-12-09T01:32:01.074Z,100526.72
2023-12-09T01:37:05.243Z,100535.03
2023-12-09T01:42:10.801Z,100534.09
2023-12-09T01:47:14.580Z,100516.84
2023-12-09T01:52:19.557Z,100524.69
2023-12-09T01:57:23.359Z,100539.31
2023-12-09T02:02:26.977Z,100543.69
2023-12-09T02:07:30.632Z,100535.19
2023-12-09T02:12:47.083Z,100539.22
2023-12-09T02:18:06.941Z,100538.38
2023-12-09T02:23:28.038Z,100535.84
2023-12-09T02:28:33.173Z,100535.84
2023-12-09T02:33:37.938Z,100519.72
2023-12-09T02:38:42.803Z,100529.81
2023-12-09T02:43:47.905Z,100533.25
2023-12-09T02:48:51.567Z,100530.47
2023-12-09T02:53:55.930Z,100522.81
2023-12-09T02:58:59.486Z,100535.69
2023-12-09T03:04:03.215Z,100543.59
2023-12-09T03:09:06.716Z,100534.81
2023-12-09T03:14:10.157Z,100539.97
2023-12-09T03:19:13.700Z,100535.84
2023-12-09T03:24:17.678Z,100539.41
2023-12-09T03:29:21.961Z,100547.16
2023-12-09T03:34:25.487Z,100546.13
2023-12-09T03:39:29.052Z,100542.03
2023-12-09T03:44:32.687Z,100547.97
2023-12-09T03:49:36.226Z,100551.53
2023-12-09T03:54:40.329Z,100553.97
2023-12-09T03:59:43.598Z,100551.44
2023-12-09T04:04:46.861Z,100556.59
2023-12-09T04:09:51.550Z,100561.72
2023-12-09T04:14:55.848Z,100559.19
2023-12-09T04:19:59.405Z,100548.34
2023-12-09T04:25:06.267Z,100559.34
2023-12-09T04:30:10.941Z,100558.44
2023-12-09T04:35:15.004Z,100557.50
2023-12-09T04:40:19.093Z,100558.53
2023-12-09T04:45:23.861Z,100560.94
2023-12-09T04:50:27.402Z,100561.81
2023-12-09T04:55:30.913Z,100558.44
2023-12-09T05:00:34.582Z,100577.47
2023-12-09T05:05:38.043Z,100572.41
2023-12-09T05:10:41.589Z,100558.97
2023-12-09T05:15:45.574Z,100570.63
2023-12-09T05:20:49.061Z,100570.84
2023-12-09T05:25:53.183Z,100581.09
2023-12-09T05:30:57.438Z,100562.59
2023-12-09T05:36:01.374Z,100568.28
2023-12-09T05:41:06.533Z,100574.28
2023-12-09T05:46:19.361Z,100574.09
2023-12-09T05:51:23.040Z,100573.94
2023-12-09T05:56:26.728Z,100567.94
2023-12-09T06:01:30.217Z,100570.53
2023-12-09T06:06:33.842Z,100582.50
2023-12-09T06:11:37.253Z,100581.00
2023-12-09T06:16:40.723Z,100587.72
2023-12-09T06:21:44.214Z,100587.81
2023-12-09T06:26:47.679Z,100588.91
2023-12-09T06:31:51.166Z,100579.66
2023-12-09T06:36:54.666Z,100571.56
2023-12-09T06:41:58.163Z,100569.41
2023-12-09T06:47:01.631Z,100578.81
2023-12-09T06:52:05.835Z,100582.28
2023-12-09T06:57:09.320Z,100595.91
2023-12-09T07:02:12.837Z,100580.50
2023-12-09T07:07:21.847Z,100591.44
2023-12-09T07:12:27.572Z,100599.75
2023-12-09T07:17:31.196Z,100571.66
2023-12-09T07:22:34.854Z,100602.09
2023-12-09T07:27:38.382Z,100597.47
2023-12-09T07:32:42.073Z,100587.50
2023-12-09T07:37:47.869Z,100598.63
2023-12-09T07:42:51.642Z,100601.13
2023-12-09T07:47:56.188Z,100595.31
2023-12-09T07:53:00.800Z,100601.03
2023-12-09T07:58:04.997Z,100593.97
2023-12-09T08:03:08.679Z,100592.94
2023-12-09T08:08:12.139Z,100588.38
2023-12-09T08:13:15.636Z,100601.72
2023-12-09T08:18:19.411Z,100597.34
2023-12-09T08:23:23.002Z,100599.59
2023-12-09T08:28:28.677Z,100593.09
2023-12-09T08:33:32.530Z,100599.53
2023-12-09T08:38:36.343Z,100590.47
2023-12-09T08:43:39.905Z,100581.50
2023-12-09T08:48:43.944Z,100598.31
2023-12-09T08:53:47.479Z,100614.56
2023-12-09T08:58:51.011Z,100610.09
2023-12-09T09:03:54.572Z,100602.25
2023-12-09T09:08:58.164Z,100601.88
2023-12-09T09:14:01.715Z,100602.59
2023-12-09T09:19:06.502Z,100598.09
2023-12-09T09:24:10.314Z,100591.56
2023-12-09T09:29:13.988Z,100572.50
2023-12-09T09:34:18.085Z,100582.50
2023-12-09T09:39:21.526Z,100576.41
2023-12-09T09:44:33.772Z,100567.34
2023-12-09T09:49:39.736Z,100568.75
2023-12-09T09:54:45.540Z,100573.78
2023-12-09T09:59:49.305Z,100557.34
2023-12-09T10:04:53.195Z,100543.31
2023-12-09T10:09:56.663Z,100552.84
2023-12-09T10:15:02.393Z,100557.88
2023-12-09T10:20:07.993Z,100534.44
2023-12-09T10:25:20.860Z,100549.94
2023-12-09T10:30:25.167Z,100534.34
2023-12-09T10:35:29.026Z,100528.56
2023-12-09T10:40:33.917Z,100514.53
2023-12-09T10:45:37.453Z,100515.38
2023-12-09T10:50:41.230Z,100499.97
2023-12-09T10:55:44.869Z,100504.81
2023-12-09T11:00:50.316Z,100497.69
2023-12-09T11:05:56.526Z,100498.78
2023-12-09T11:11:05.068Z,100497.84
2023-12-09T11:16:20.805Z,100491.66
2023-12-09T11:21:27.505Z,100493.66
2023-12-09T11:26:36.705Z,100494.78
2023-12-09T11:31:41.693Z,100487.22
2023-12-09T11:36:47.910Z,100475.09
2023-12-09T11:41:52.262Z,100487.06
2023-12-09T11:46:56.806Z,100485.44
2023-12-09T11:52:00.353Z,100474.97
2023-12-09T11:57:04.696Z,100481.41
2023-12-09T12:02:08.771Z,100470.94
2023-12-09T12:07:12.498Z,100455.97
2023-12-09T12:12:15.950Z,100459.31
2023-12-09T12:17:19.538Z,100465.72
2023-12-09T12:22:23.266Z,100457.09
2023-12-09T12:27:27.112Z,100465.72
2023-12-09T12:32:38.906Z,100459.00
2023-12-09T12:37:42.553Z,100456.56
2023-12-09T12:42:46.812Z,100427.56
2023-12-09T12:47:50.798Z,100433.53
2023-12-09T12:52:56.006Z,100439.94
2023-12-09T12:57:59.826Z,100435.13
2023-12-09T13:03:06.274Z,100427.66
2023-12-09T13:08:09.846Z,100415.59
2023-12-09T13:13:15.995Z,100417.81
2023-12-09T13:18:22.665Z,100422.22
2023-12-09T13:23:29.257Z,100425.88
2023-12-09T13:28:32.997Z,100428.78
2023-12-09T13:33:36.705Z,100424.59
2023-12-09T13:38:40.801Z,100426.59
2023-12-09T13:43:44.379Z,100427.53
2023-12-09T13:48:47.906Z,100428.94
2023-12-09T13:53:51.569Z,100415.03
2023-12-09T13:58:55.649Z,100423.53
2023-12-09T14:03:59.372Z,100412.41
2023-12-09T14:09:03.671Z,100408.00
2023-12-09T14:14:07.627Z,100401.63
2023-12-09T14:19:11.957Z,100407.56
2023-12-09T14:24:17.299Z,100400.53
2023-12-09T14:29:20.997Z,100397.19
2023-12-09T14:34:27.190Z,100397.34
2023-12-09T14:39:30.960Z,100392.13
2023-12-09T14:44:34.405Z,100379.66
2023-12-09T14:49:38.766Z,100366.44
2023-12-09T14:54:43.244Z,100373.16
2023-12-09T14:59:46.825Z,100369.06
2023-12-09T15:04:50.395Z,100359.94
2023-12-09T15:09:54.169Z,100371.41
2023-12-09T15:14:58.032Z,100364.44
2023-12-09T15:20:01.837Z,100364.25
2023-12-09T15:25:06.882Z,100351.56
2023-12-09T15:30:11.934Z,100342.25
2023-12-09T15:35:16.850Z,100345.97
2023-12-09T15:40:20.504Z,100342.81
2023-12-09T15:45:23.973Z,100343.84
2023-12-09T15:50:27.636Z,100344.03
2023-12-09T15:55:32.885Z,100326.06
2023-12-09T16:00:36.435Z,100333.13
2023-12-09T16:05:40.809Z,100344.41
2023-12-09T16:10:44.373Z,100355.69
2023-12-09T16:15:48.506Z,100340.03
2023-12-09T16:20:52.302Z,100337.34
2023-12-09T16:25:55.879Z,100328.75
2023-12-09T16:30:59.381Z,100328.66
2023-12-09T16:36:03.172Z,100328.66
2023-12-09T16:41:07.354Z,100313.00
2023-12-09T16:46:10.824Z,100313.06
2023-12-09T16:51:14.570Z,100318.28
2023-12-09T16:56:19.293Z,100303.69
2023-12-09T17:01:23.702Z,100295.75
2023-12-09T17:06:27.271Z,100310.56
2023-12-09T17:11:30.948Z,100303.41
2023-12-09T17:16:34.472Z,100298.09
2023-12-09T17:21:38.032Z,100280.00
2023-12-09T17:26:41.641Z,100294.28
2023-12-09T17:31:46.850Z,100297.72
2023-12-09T17:36:51.984Z,100286.72
2023-12-09T17:41:58.718Z,100291.75
2023-12-09T17:47:02.805Z,100280.38
2023-12-09T17:52:06.468Z,100277.03
2023-12-09T17:57:10.870Z,100266.41
2023-12-09T18:02:14.327Z,100258.56
2023-12-09T18:07:18.274Z,100260.16
2023-12-09T18:12:22.189Z,100236.47
2023-12-09T18:17:25.742Z,100237.28
2023-12-09T18:22:29.568Z,100238.22
2023-12-09T18:27:33.532Z,100258.19
2023-12-09T18:32:39.722Z,100251.28
2023-12-09T18:37:46.014Z,100226.28
2023-12-09T18:42:52.090Z,100238.06
2023-12-09T18:47:56.208Z,100233.94
2023-12-09T18:52:59.718Z,100226.75
2023-12-09T18:58:04.113Z,100231.25
2023-12-09T19:03:07.928Z,100205.34
2023-12-09T19:08:11.500Z,100186.22
2023-12-09T19:13:14.863Z,100177.53
2023-12-09T19:18:19.222Z,100166.38
2023-12-09T19:23:23.021Z,100168.53
2023-12-09T19:28:27.071Z,100157.94
2023-12-09T19:33:30.639Z,100156.03
2023-12-09T19:38:34.226Z,100147.53
2023-12-09T19:43:37.784Z,100153.81
2023-12-09T19:48:42.067Z,100138.53
2023-12-09T19:53:48.675Z,100125.78
2023-12-09T19:58:52.902Z,100119.91
2023-12-09T20:03:56.379Z,100111.63
2023-12-09T20:09:00.011Z,100107.25
2023-12-09T20:14:03.453Z,100109.84
2023-12-09T20:19:08.708Z,100097.97
2023-12-09T20:24:12.783Z,100100.28
2023-12-09T20:29:16.298Z,100079.69
2023-12-09T20:34:19.970Z,100075.44
2023-12-09T20:39:24.466Z,100073.66
2023-12-09T20:44:28.042Z,100075.22
2023-12-09T20:49:31.538Z,100080.53
2023-12-09T20:54:35.063Z,100055.25
2023-12-09T20:59:39.487Z,100054.19
2023-12-09T21:04:46.434Z,100047.13
2023-12-09T21:09:52.524Z,100036.97
2023-12-09T21:14:56.017Z,100026.28
2023-12-09T21:20:01.088Z,100038.94
2023-12-09T21:25:05.475Z,100014.09
2023-12-09T21:30:09.796Z,100009.41
2023-12-09T21:35:13.466Z,99995.19
2023-12-09T21:40:17.773Z,99996.66
2023-12-09T21:45:21.908Z,99996.88
2023-12-09T21:50:26.433Z,99988.50
2023-12-09T21:55:32.348Z,99985.78
2023-12-09T22:00:36.348Z,99986.72
2023-12-09T22:05:40.048Z,99984.94
2023-12-09T22:10:43.454Z,99959.09
2023-12-09T22:15:47.715Z,99932.66
2023-12-09T22:20:51.211Z,99934.44
2023-12-09T22:25:54.792Z,99957.41
2023-12-09T22:30:59.006Z,99948.22
2023-12-09T22:36:02.537Z,99942.53
2023-12-09T22:41:06.282Z,99956.22
2023-12-09T22:46:10.668Z,99958.13
2023-12-09T22:51:21.817Z,99952.97
2023-12-09T22:56:28.715Z,99955.28
2023-12-09T23:01:34.170Z,99958.72
2023-12-09T23:06:38.771Z,99945.69
2023-12-09T23:11:42.106Z,99931.00
2023-12-09T23:16:46.507Z,99920.44
2023-12-09T23:21:50.913Z,99904.91
2023-12-09T23:26:55.323Z,99888.44
2023-12-09T23:31:58.584Z,99866.94
2023-12-09T23:37:01.987Z,99833.16
2023-12-09T23:42:05.825Z,99835.16
2023-12-09T23:47:09.333Z,99850.97
2023-12-09T23:52:12.963Z,99850.03
2023-12-09T23:57:16.586Z,99852.63
